Detalii statie TARCEA AGRO TARCEA [0000197E]

Toti senzorii

Date Temperatura solului [C]Precipitatii [mm]Voltaj baterie [mV]Leaf Wetness [Min]HC Air temperature [C]HC Relative humidity [%]Punctul de roua [C]
medieminmaxsumaultimatimpmedieminmaxmediemediemin
2019-04-19 19:00:00 18.6 18.3 18.9 0 6992 17.94 16.64 19.01 18.33 -6.9 -9
2019-04-19 20:00:00 18.1 17.7 18.4 0 6894 14.57 12.96 16.19 25.5 -5.1 -5.7
2019-04-19 21:00:00 17.3 17 17.6 0 6884 12.11 11.25 12.87 30.38 -4.9 -5.2
2019-04-19 22:00:00 16.5 16.2 16.9 0 6864 9.27 8.41 11.32 36.57 -4.9 -5.4
2019-04-19 23:00:00 15.8 15.5 16.2 0 6864 7.18 5.76 8.12 42.71 -4.7 -5.5
2019-04-20 00:00:00 15.1 14.7 15.5 0 6844 7.52 7.14 7.97 42.83 -4.3 -4.6
2019-04-20 01:00:00 14.4 14.1 14.7 0 6844 6.28 5.4 7.16 46.46 -4.3 -4.6
2019-04-20 02:00:00 13.9 13.7 14.3 0 6826 3.3 2.69 5.54 56.74 -4.5 -5.3
2019-04-20 03:00:00 13.4 13.1 13.7 0 6834 3.45 2.92 3.68 56.63 -4.3 -4.7
2019-04-20 04:00:00 12.9 12.7 13.2 0 6816 2.72 2.54 2.94 61.64 -3.9 -4.4
2019-04-20 05:00:00 12.4 12.3 12.8 0 6816 2.2 1.21 3.18 62 -4.3 -5
2019-04-20 06:00:00 11.9 11.7 12.2 0 6816 1.03 -0.53 3.49 66.16 -4.6 -5.3
2019-04-20 07:00:00 11.5 11.3 11.7 0 6844 1.49 -0.03 3.42 70.97 -3.2 -4.1
2019-04-20 08:00:00 11.2 11.1 11.4 0 6864 7.42 4.47 9.41 50.92 -2.3 -3.1
2019-04-20 09:00:00 11.3 11.1 11.6 0 6942 10.4 8.55 12.08 42.56 -1.9 -2.6
2019-04-20 10:00:00 12 11.6 12.5 0 7070 14.13 12.07 16.7 35.76 -0.8 -1.4
2019-04-20 11:00:00 13.1 12.5 13.6 0 7304 16.77 15.67 17.95 25.24 -3.4 -4.7
2019-04-20 12:00:00 14.3 13.7 15 0 7294 18.04 16.94 18.83 19.41 -5.8 -7.4
2019-04-20 13:00:00 15.6 15 16.2 0 7294 18.92 17.66 19.77 18.92 -5.5 -6.8
2019-04-20 14:00:00 16.9 16.4 17.6 0 7196 19.52 19.05 20.37 17.04 -6.4 -7.3
2019-04-20 15:00:00 18.1 17.6 18.7 0 7196 19.97 19.52 20.38 16.4 -6.5 -7.5
2019-04-20 16:00:00 19.1 18.7 19.5 0 7186 20 19.57 20.36 15.87 -6.9 -7.7
2019-04-20 17:00:00 19.7 19.5 20 0 7294 19.93 19.54 20.53 14.53 -8.2 -9.4
2019-04-20 18:00:00 20 19.9 20.1 0 7294 19.33 18.83 19.67 15.6 -7.7 -8.6
2019-04-20 19:00:00 19.7 19.5 20 0 7000 17.32 15.35 18.92 24.01 -3.8 -8.2
2019-04-20 20:00:00 19.1 18.8 19.4 0 6904 13.23 11.67 14.96 32.81 -2.8 -4.2
2019-04-20 21:00:00 18.2 17.6 18.7 0 6874 10.44 9.76 11.65 39.04 -2.9 -3.3
2019-04-20 22:00:00 17.3 16.9 17.8 0 6874 8.98 8.24 9.88 42.28 -3.2 -3.5
2019-04-20 23:00:00 16.6 16.3 17 0 6864 8.45 8.08 8.65 44.1 -3.1 -3.5
2019-04-21 00:00:00 15.9 15.6 16.3 0 6854 7.44 7.01 7.89 51.22 -1.9 -2.5
2019-04-21 01:00:00 15.3 15.1 15.6 0 6834 7.49 7.27 7.85 53.35 -1.4 -1.9
2019-04-21 02:00:00 14.9 14.7 15.2 0 6834 8.64 7.68 9.67 47.51 -1.9 -2.2
2019-04-21 03:00:00 14.5 14.4 14.8 0 6834 9.08 8.65 9.46 46.21 -1.9 -2.2
2019-04-21 04:00:00 14.2 14.1 14.4 0 6826 8.73 7.96 9.42 48.11 -1.7 -2.1
2019-04-21 05:00:00 13.9 13.7 14.1 0 6834 6.68 5.27 7.83 56.72 -1.3 -1.6
2019-04-21 06:00:00 13.5 13.4 13.7 0 6816 6.43 5.47 7.44 55.47 -1.9 -2.1
2019-04-21 07:00:00 13.1 13 13.4 0 6834 9.18 7.76 10.08 47.73 -1.4 -2.2
2019-04-21 08:00:00 12.9 12.9 13 0 6894 11.54 10.5 12.67 44.67 -0.2 -1.1
2019-04-21 09:00:00 13 12.9 13.1 0 6982 13.83 12.72 14.66 39.2 0 -0.4
2019-04-21 10:00:00 13.5 13.2 13.9 0 7236 15.11 14.25 15.54 37.82 0.6 0.1
2019-04-21 11:00:00 14.3 13.8 14.8 0 7304 16.18 15.36 16.97 37.03 1.2 0.3
2019-04-21 12:00:00 15.4 14.9 16 0 7216 17.91 17.12 19.27 33.14 1.2 0
2019-04-21 13:00:00 16.6 16.1 17.3 0 7284 19.55 18.31 20.35 28.64 0.6 0
2019-04-21 14:00:00 18 17.5 18.6 0 7294 20.51 19.55 21.66 27.13 0.7 -0.6
2019-04-21 15:00:00 19 18.8 19.3 0 7284 20.78 20.21 21.24 24.39 -0.5 -3.9